sensor_id;sensor_type;location;lat;lon;timestamp;P1;durP1;ratioP1;P2;durP2;ratioP2
12812;SDS011;6471;50.932;6.934;2023-04-19T00:18:37;6.00;;;5.10;;
12812;SDS011;6471;50.932;6.934;2023-04-19T00:26:47;6.03;;;5.10;;
12812;SDS011;6471;50.932;6.934;2023-04-19T00:29:44;5.60;;;4.40;;
12812;SDS011;6471;50.932;6.934;2023-04-19T00:33:05;5.70;;;4.47;;
12812;SDS011;6471;50.932;6.934;2023-04-19T00:54:52;6.30;;;4.40;;
12812;SDS011;6471;50.932;6.934;2023-04-19T02:02:42;5.17;;;3.70;;
12812;SDS011;6471;50.932;6.934;2023-04-19T02:14:44;5.87;;;3.90;;
12812;SDS011;6471;50.932;6.934;2023-04-19T02:17:26;4.33;;;3.37;;
12812;SDS011;6471;50.932;6.934;2023-04-19T02:19:58;4.73;;;3.70;;
12812;SDS011;6471;50.932;6.934;2023-04-19T02:22:47;3.70;;;3.27;;
12812;SDS011;6471;50.932;6.934;2023-04-19T02:25:24;4.30;;;3.47;;
12812;SDS011;6471;50.932;6.934;2023-04-19T02:31:02;6.57;;;4.73;;
12812;SDS011;6471;50.932;6.934;2023-04-19T02:37:01;6.20;;;4.50;;
12812;SDS011;6471;50.932;6.934;2023-04-19T02:42:58;4.73;;;4.20;;
12812;SDS011;6471;50.932;6.934;2023-04-19T02:45:27;8.00;;;5.50;;
12812;SDS011;6471;50.932;6.934;2023-04-19T02:51:20;7.13;;;5.00;;
12812;SDS011;6471;50.932;6.934;2023-04-19T03:00:23;7.23;;;5.60;;
12812;SDS011;6471;50.932;6.934;2023-04-19T03:02:58;8.43;;;6.30;;
12812;SDS011;6471;50.932;6.934;2023-04-19T03:05:27;9.53;;;7.00;;
12812;SDS011;6471;50.932;6.934;2023-04-19T03:11:04;9.83;;;7.80;;
12812;SDS011;6471;50.932;6.934;2023-04-19T03:13:46;9.73;;;7.40;;
12812;SDS011;6471;50.932;6.934;2023-04-19T03:16:15;11.73;;;8.23;;
12812;SDS011;6471;50.932;6.934;2023-04-19T03:19:05;11.70;;;8.23;;
12812;SDS011;6471;50.932;6.934;2023-04-19T03:41:54;9.90;;;7.47;;
12812;SDS011;6471;50.932;6.934;2023-04-19T03:51:06;10.80;;;7.00;;
12812;SDS011;6471;50.932;6.934;2023-04-19T03:53:42;9.53;;;7.57;;
12812;SDS011;6471;50.932;6.934;2023-04-19T03:59:22;10.93;;;7.60;;
12812;SDS011;6471;50.932;6.934;2023-04-19T04:01:53;9.57;;;6.90;;
12812;SDS011;6471;50.932;6.934;2023-04-19T04:07:48;12.50;;;8.00;;
12812;SDS011;6471;50.932;6.934;2023-04-19T04:14:08;10.07;;;7.90;;
12812;SDS011;6471;50.932;6.934;2023-04-19T04:29:42;11.30;;;7.87;;
12812;SDS011;6471;50.932;6.934;2023-04-19T04:32:30;10.83;;;7.93;;
12812;SDS011;6471;50.932;6.934;2023-04-19T04:54:17;11.43;;;7.53;;
12812;SDS011;6471;50.932;6.934;2023-04-19T04:59:48;10.53;;;8.30;;
12812;SDS011;6471;50.932;6.934;2023-04-19T05:02:33;13.10;;;8.33;;
12812;SDS011;6471;50.932;6.934;2023-04-19T05:08:17;10.30;;;8.10;;
12812;SDS011;6471;50.932;6.934;2023-04-19T05:11:14;11.47;;;7.67;;
12812;SDS011;6471;50.932;6.934;2023-04-19T05:13:50;12.60;;;8.97;;
12812;SDS011;6471;50.932;6.934;2023-04-19T05:17:03;10.73;;;7.70;;
12812;SDS011;6471;50.932;6.934;2023-04-19T05:36:01;12.07;;;8.20;;
12812;SDS011;6471;50.932;6.934;2023-04-19T05:48:05;9.30;;;7.20;;
12812;SDS011;6471;50.932;6.934;2023-04-19T05:53:59;10.77;;;8.20;;
12812;SDS011;6471;50.932;6.934;2023-04-19T05:56:25;10.77;;;8.47;;
12812;SDS011;6471;50.932;6.934;2023-04-19T05:58:51;11.30;;;8.13;;
12812;SDS011;6471;50.932;6.934;2023-04-19T06:01:20;12.40;;;9.10;;
12812;SDS011;6471;50.932;6.934;2023-04-19T06:03:49;12.37;;;9.37;;
12812;SDS011;6471;50.932;6.934;2023-04-19T06:06:28;13.73;;;8.70;;
12812;SDS011;6471;50.932;6.934;2023-04-19T06:12:26;12.60;;;8.10;;
12812;SDS011;6471;50.932;6.934;2023-04-19T06:14:53;12.60;;;8.53;;
12812;SDS011;6471;50.932;6.934;2023-04-19T06:20:31;10.83;;;8.00;;
12812;SDS011;6471;50.932;6.934;2023-04-19T06:23:16;13.67;;;8.30;;
12812;SDS011;6471;50.932;6.934;2023-04-19T06:28:38;9.70;;;7.60;;
12812;SDS011;6471;50.932;6.934;2023-04-19T06:44:27;7.97;;;6.13;;
12812;SDS011;6471;50.932;6.934;2023-04-19T06:47:33;9.23;;;6.00;;
12812;SDS011;6471;50.932;6.934;2023-04-19T06:50:11;7.57;;;6.10;;
12812;SDS011;6471;50.932;6.934;2023-04-19T07:29:19;5.53;;;4.20;;
12812;SDS011;6471;50.932;6.934;2023-04-19T07:31:57;6.73;;;4.97;;
12812;SDS011;6471;50.932;6.934;2023-04-19T07:34:30;6.83;;;4.50;;
12812;SDS011;6471;50.932;6.934;2023-04-19T07:37:10;6.63;;;4.20;;
12812;SDS011;6471;50.932;6.934;2023-04-19T07:42:47;6.07;;;4.20;;
12812;SDS011;6471;50.932;6.934;2023-04-19T07:48:14;5.13;;;4.20;;
12812;SDS011;6471;50.932;6.934;2023-04-19T07:50:53;7.23;;;4.90;;
12812;SDS011;6471;50.932;6.934;2023-04-19T07:59:18;6.37;;;4.57;;
12812;SDS011;6471;50.932;6.934;2023-04-19T08:02:03;5.90;;;3.83;;
12812;SDS011;6471;50.932;6.934;2023-04-19T08:05:14;6.20;;;4.67;;
12812;SDS011;6471;50.932;6.934;2023-04-19T08:08:10;5.17;;;4.13;;
12812;SDS011;6471;50.932;6.934;2023-04-19T08:10:52;4.80;;;3.93;;
12812;SDS011;6471;50.932;6.934;2023-04-19T08:13:36;5.00;;;4.07;;
12812;SDS011;6471;50.932;6.934;2023-04-19T08:16:15;5.97;;;4.17;;
12812;SDS011;6471;50.932;6.934;2023-04-19T08:25:10;3.83;;;3.27;;
12812;SDS011;6471;50.932;6.934;2023-04-19T08:27:55;4.90;;;3.60;;
12812;SDS011;6471;50.932;6.934;2023-04-19T08:30:36;5.27;;;3.67;;
12812;SDS011;6471;50.932;6.934;2023-04-19T08:34:21;6.20;;;4.20;;
12812;SDS011;6471;50.932;6.934;2023-04-19T08:46:18;4.17;;;3.77;;
12812;SDS011;6471;50.932;6.934;2023-04-19T08:49:11;5.30;;;4.37;;
12812;SDS011;6471;50.932;6.934;2023-04-19T09:04:05;4.40;;;3.60;;
12812;SDS011;6471;50.932;6.934;2023-04-19T09:40:43;8.53;;;3.57;;
12812;SDS011;6471;50.932;6.934;2023-04-19T09:46:37;6.53;;;3.50;;
12812;SDS011;6471;50.932;6.934;2023-04-19T09:51:42;5.50;;;3.60;;
12812;SDS011;6471;50.932;6.934;2023-04-19T09:54:09;6.63;;;4.00;;
12812;SDS011;6471;50.932;6.934;2023-04-19T09:56:35;5.37;;;3.53;;
12812;SDS011;6471;50.932;6.934;2023-04-19T09:59:02;4.83;;;3.70;;
12812;SDS011;6471;50.932;6.934;2023-04-19T10:01:29;7.90;;;3.70;;
12812;SDS011;6471;50.932;6.934;2023-04-19T10:03:58;4.43;;;3.27;;
12812;SDS011;6471;50.932;6.934;2023-04-19T10:06:24;4.60;;;3.50;;
12812;SDS011;6471;50.932;6.934;2023-04-19T10:08:52;4.27;;;3.23;;
12812;SDS011;6471;50.932;6.934;2023-04-19T10:11:20;5.70;;;3.80;;
12812;SDS011;6471;50.932;6.934;2023-04-19T10:13:46;4.83;;;3.37;;
12812;SDS011;6471;50.932;6.934;2023-04-19T10:16:13;4.53;;;3.50;;
12812;SDS011;6471;50.932;6.934;2023-04-19T10:18:40;7.17;;;3.30;;
12812;SDS011;6471;50.932;6.934;2023-04-19T10:21:06;4.57;;;3.17;;
12812;SDS011;6471;50.932;6.934;2023-04-19T10:23:33;5.60;;;3.47;;
12812;SDS011;6471;50.932;6.934;2023-04-19T10:25:59;4.87;;;3.30;;
12812;SDS011;6471;50.932;6.934;2023-04-19T10:28:28;4.63;;;3.70;;
12812;SDS011;6471;50.932;6.934;2023-04-19T10:30:59;3.83;;;3.10;;
12812;SDS011;6471;50.932;6.934;2023-04-19T10:33:29;5.03;;;3.67;;
12812;SDS011;6471;50.932;6.934;2023-04-19T10:35:56;5.37;;;3.40;;
12812;SDS011;6471;50.932;6.934;2023-04-19T10:38:41;6.43;;;3.30;;
12812;SDS011;6471;50.932;6.934;2023-04-19T10:41:08;5.70;;;3.40;;
12812;SDS011;6471;50.932;6.934;2023-04-19T10:43:44;4.80;;;3.43;;
12812;SDS011;6471;50.932;6.934;2023-04-19T10:46:15;4.07;;;3.20;;
12812;SDS011;6471;50.932;6.934;2023-04-19T10:51:18;3.67;;;3.10;;
12812;SDS011;6471;50.932;6.934;2023-04-19T10:53:55;3.93;;;3.23;;
12812;SDS011;6471;50.932;6.934;2023-04-19T11:01:35;4.43;;;3.10;;
12812;SDS011;6471;50.932;6.934;2023-04-19T11:06:30;5.50;;;3.00;;
12812;SDS011;6471;50.932;6.934;2023-04-19T11:08:57;3.70;;;2.70;;
12812;SDS011;6471;50.932;6.934;2023-04-19T11:11:23;5.23;;;2.87;;
12812;SDS011;6471;50.932;6.934;2023-04-19T11:13:49;5.17;;;3.20;;
12812;SDS011;6471;50.932;6.934;2023-04-19T11:16:17;3.67;;;3.10;;
12812;SDS011;6471;50.932;6.934;2023-04-19T11:18:43;4.73;;;3.13;;
12812;SDS011;6471;50.932;6.934;2023-04-19T11:21:12;5.00;;;2.73;;
12812;SDS011;6471;50.932;6.934;2023-04-19T11:23:39;5.00;;;3.23;;
12812;SDS011;6471;50.932;6.934;2023-04-19T11:26:08;3.70;;;2.90;;
12812;SDS011;6471;50.932;6.934;2023-04-19T11:28:35;4.10;;;2.97;;
12812;SDS011;6471;50.932;6.934;2023-04-19T11:31:02;4.53;;;2.90;;
12812;SDS011;6471;50.932;6.934;2023-04-19T11:33:32;3.87;;;2.90;;
12812;SDS011;6471;50.932;6.934;2023-04-19T11:35:58;4.43;;;2.73;;
12812;SDS011;6471;50.932;6.934;2023-04-19T11:38:28;4.27;;;3.13;;
12812;SDS011;6471;50.932;6.934;2023-04-19T11:41:00;4.53;;;3.10;;
12812;SDS011;6471;50.932;6.934;2023-04-19T11:43:33;3.20;;;2.90;;
12812;SDS011;6471;50.932;6.934;2023-04-19T11:48:31;3.47;;;3.03;;
12812;SDS011;6471;50.932;6.934;2023-04-19T11:50:58;5.20;;;3.07;;
12812;SDS011;6471;50.932;6.934;2023-04-19T11:53:24;3.63;;;2.67;;
12812;SDS011;6471;50.932;6.934;2023-04-19T11:55:54;3.67;;;2.80;;
12812;SDS011;6471;50.932;6.934;2023-04-19T11:58:25;4.87;;;2.87;;
12812;SDS011;6471;50.932;6.934;2023-04-19T12:00:53;5.33;;;2.90;;
12812;SDS011;6471;50.932;6.934;2023-04-19T12:03:20;5.33;;;2.70;;
12812;SDS011;6471;50.932;6.934;2023-04-19T12:05:53;3.80;;;3.00;;
12812;SDS011;6471;50.932;6.934;2023-04-19T12:08:28;3.30;;;2.57;;
12812;SDS011;6471;50.932;6.934;2023-04-19T12:10:58;4.10;;;2.50;;
12812;SDS011;6471;50.932;6.934;2023-04-19T12:13:24;3.77;;;2.70;;
12812;SDS011;6471;50.932;6.934;2023-04-19T12:15:50;5.67;;;2.70;;
12812;SDS011;6471;50.932;6.934;2023-04-19T12:18:16;6.17;;;2.50;;
12812;SDS011;6471;50.932;6.934;2023-04-19T12:20:43;2.63;;;2.07;;
12812;SDS011;6471;50.932;6.934;2023-04-19T12:23:10;3.47;;;2.40;;
12812;SDS011;6471;50.932;6.934;2023-04-19T12:25:38;3.63;;;2.23;;
12812;SDS011;6471;50.932;6.934;2023-04-19T12:28:05;3.63;;;2.27;;
12812;SDS011;6471;50.932;6.934;2023-04-19T12:30:31;2.20;;;1.97;;
12812;SDS011;6471;50.932;6.934;2023-04-19T12:32:57;5.70;;;2.03;;
12812;SDS011;6471;50.932;6.934;2023-04-19T12:35:24;2.67;;;2.10;;
12812;SDS011;6471;50.932;6.934;2023-04-19T12:37:52;2.47;;;2.10;;
12812;SDS011;6471;50.932;6.934;2023-04-19T12:40:18;4.93;;;2.40;;
12812;SDS011;6471;50.932;6.934;2023-04-19T12:42:44;3.93;;;2.30;;
12812;SDS011;6471;50.932;6.934;2023-04-19T12:45:11;2.73;;;2.23;;
12812;SDS011;6471;50.932;6.934;2023-04-19T12:47:37;3.47;;;2.20;;
12812;SDS011;6471;50.932;6.934;2023-04-19T12:50:04;2.77;;;2.30;;
12812;SDS011;6471;50.932;6.934;2023-04-19T12:52:30;4.33;;;2.30;;
12812;SDS011;6471;50.932;6.934;2023-04-19T12:54:56;6.37;;;2.80;;
12812;SDS011;6471;50.932;6.934;2023-04-19T12:57:22;3.23;;;2.20;;
12812;SDS011;6471;50.932;6.934;2023-04-19T12:59:48;4.93;;;2.70;;
12812;SDS011;6471;50.932;6.934;2023-04-19T13:02:14;5.40;;;2.53;;
12812;SDS011;6471;50.932;6.934;2023-04-19T13:04:40;4.63;;;2.30;;
12812;SDS011;6471;50.932;6.934;2023-04-19T13:07:07;3.50;;;2.40;;
12812;SDS011;6471;50.932;6.934;2023-04-19T13:09:33;3.97;;;2.50;;
12812;SDS011;6471;50.932;6.934;2023-04-19T13:12:00;5.67;;;2.70;;
12812;SDS011;6471;50.932;6.934;2023-04-19T13:14:27;3.93;;;2.60;;
12812;SDS011;6471;50.932;6.934;2023-04-19T13:16:53;3.60;;;2.63;;
12812;SDS011;6471;50.932;6.934;2023-04-19T13:19:19;5.87;;;2.77;;
12812;SDS011;6471;50.932;6.934;2023-04-19T13:21:46;3.37;;;2.40;;
12812;SDS011;6471;50.932;6.934;2023-04-19T13:24:12;3.97;;;2.60;;
12812;SDS011;6471;50.932;6.934;2023-04-19T13:26:38;3.73;;;2.73;;
12812;SDS011;6471;50.932;6.934;2023-04-19T13:29:04;3.40;;;2.60;;
12812;SDS011;6471;50.932;6.934;2023-04-19T13:31:32;3.77;;;2.60;;
12812;SDS011;6471;50.932;6.934;2023-04-19T13:33:58;4.63;;;2.57;;
12812;SDS011;6471;50.932;6.934;2023-04-19T13:36:25;6.13;;;2.70;;
12812;SDS011;6471;50.932;6.934;2023-04-19T13:38:54;3.87;;;2.40;;
12812;SDS011;6471;50.932;6.934;2023-04-19T13:41:20;3.27;;;2.70;;
12812;SDS011;6471;50.932;6.934;2023-04-19T13:43:46;5.77;;;2.50;;
12812;SDS011;6471;50.932;6.934;2023-04-19T13:46:13;4.87;;;2.53;;
12812;SDS011;6471;50.932;6.934;2023-04-19T13:48:39;4.13;;;2.60;;
12812;SDS011;6471;50.932;6.934;2023-04-19T13:51:05;3.50;;;2.60;;
12812;SDS011;6471;50.932;6.934;2023-04-19T13:53:31;5.50;;;2.40;;
12812;SDS011;6471;50.932;6.934;2023-04-19T13:55:58;3.43;;;2.77;;
12812;SDS011;6471;50.932;6.934;2023-04-19T13:58:24;3.57;;;2.60;;
12812;SDS011;6471;50.932;6.934;2023-04-19T14:00:50;3.73;;;2.83;;
12812;SDS011;6471;50.932;6.934;2023-04-19T14:03:20;4.80;;;2.90;;
12812;SDS011;6471;50.932;6.934;2023-04-19T14:05:46;4.63;;;2.70;;
12812;SDS011;6471;50.932;6.934;2023-04-19T14:08:12;3.37;;;2.87;;
12812;SDS011;6471;50.932;6.934;2023-04-19T14:10:38;3.90;;;2.63;;
12812;SDS011;6471;50.932;6.934;2023-04-19T14:13:05;3.43;;;2.13;;
12812;SDS011;6471;50.932;6.934;2023-04-19T14:15:31;3.53;;;2.67;;
12812;SDS011;6471;50.932;6.934;2023-04-19T14:17:57;4.60;;;2.83;;
12812;SDS011;6471;50.932;6.934;2023-04-19T14:20:23;3.47;;;2.90;;
12812;SDS011;6471;50.932;6.934;2023-04-19T14:22:49;3.40;;;2.63;;
12812;SDS011;6471;50.932;6.934;2023-04-19T14:25:16;3.27;;;2.90;;
12812;SDS011;6471;50.932;6.934;2023-04-19T14:27:42;5.10;;;2.73;;
12812;SDS011;6471;50.932;6.934;2023-04-19T14:30:09;3.97;;;3.07;;
12812;SDS011;6471;50.932;6.934;2023-04-19T14:32:35;3.53;;;2.77;;
12812;SDS011;6471;50.932;6.934;2023-04-19T14:35:02;3.37;;;2.97;;
12812;SDS011;6471;50.932;6.934;2023-04-19T14:37:28;4.07;;;3.00;;
12812;SDS011;6471;50.932;6.934;2023-04-19T14:39:54;5.70;;;3.27;;
12812;SDS011;6471;50.932;6.934;2023-04-19T14:42:20;3.70;;;2.73;;
12812;SDS011;6471;50.932;6.934;2023-04-19T14:44:48;4.93;;;3.03;;
12812;SDS011;6471;50.932;6.934;2023-04-19T14:47:14;6.30;;;3.00;;
12812;SDS011;6471;50.932;6.934;2023-04-19T14:49:43;5.60;;;3.00;;
12812;SDS011;6471;50.932;6.934;2023-04-19T14:52:09;4.77;;;3.27;;
12812;SDS011;6471;50.932;6.934;2023-04-19T14:54:37;3.70;;;2.93;;
12812;SDS011;6471;50.932;6.934;2023-04-19T14:57:07;5.70;;;3.13;;
12812;SDS011;6471;50.932;6.934;2023-04-19T14:59:36;4.53;;;3.20;;
12812;SDS011;6471;50.932;6.934;2023-04-19T15:02:02;5.30;;;2.90;;
12812;SDS011;6471;50.932;6.934;2023-04-19T15:04:28;5.00;;;2.80;;
12812;SDS011;6471;50.932;6.934;2023-04-19T15:06:54;5.50;;;2.80;;
12812;SDS011;6471;50.932;6.934;2023-04-19T15:09:20;4.00;;;2.60;;
12812;SDS011;6471;50.932;6.934;2023-04-19T15:11:46;3.83;;;2.80;;
12812;SDS011;6471;50.932;6.934;2023-04-19T15:14:12;3.50;;;2.60;;
12812;SDS011;6471;50.932;6.934;2023-04-19T15:16:38;3.53;;;2.77;;
12812;SDS011;6471;50.932;6.934;2023-04-19T15:19:04;2.93;;;2.57;;
12812;SDS011;6471;50.932;6.934;2023-04-19T15:21:31;3.93;;;2.80;;
12812;SDS011;6471;50.932;6.934;2023-04-19T15:23:57;4.00;;;2.67;;
12812;SDS011;6471;50.932;6.934;2023-04-19T15:26:23;4.43;;;2.90;;
12812;SDS011;6471;50.932;6.934;2023-04-19T15:28:49;3.60;;;2.60;;
12812;SDS011;6471;50.932;6.934;2023-04-19T15:31:16;3.17;;;2.50;;
12812;SDS011;6471;50.932;6.934;2023-04-19T15:33:42;3.53;;;2.70;;
12812;SDS011;6471;50.932;6.934;2023-04-19T15:36:08;4.57;;;2.80;;
12812;SDS011;6471;50.932;6.934;2023-04-19T15:38:34;3.60;;;2.90;;
12812;SDS011;6471;50.932;6.934;2023-04-19T15:41:00;4.83;;;2.80;;
12812;SDS011;6471;50.932;6.934;2023-04-19T15:43:26;4.87;;;3.00;;
12812;SDS011;6471;50.932;6.934;2023-04-19T15:45:52;3.63;;;2.90;;
12812;SDS011;6471;50.932;6.934;2023-04-19T15:48:18;3.63;;;3.00;;
12812;SDS011;6471;50.932;6.934;2023-04-19T15:50:44;5.07;;;2.90;;
12812;SDS011;6471;50.932;6.934;2023-04-19T15:53:10;3.67;;;2.90;;
12812;SDS011;6471;50.932;6.934;2023-04-19T15:55:36;4.57;;;2.93;;
12812;SDS011;6471;50.932;6.934;2023-04-19T15:58:04;2.90;;;2.60;;
12812;SDS011;6471;50.932;6.934;2023-04-19T16:00:30;4.70;;;3.00;;
12812;SDS011;6471;50.932;6.934;2023-04-19T16:02:56;4.27;;;2.80;;
12812;SDS011;6471;50.932;6.934;2023-04-19T16:05:22;6.03;;;2.60;;
12812;SDS011;6471;50.932;6.934;2023-04-19T16:08:01;4.00;;;2.83;;
12812;SDS011;6471;50.932;6.934;2023-04-19T16:10:27;5.40;;;3.20;;
12812;SDS011;6471;50.932;6.934;2023-04-19T16:12:54;6.90;;;2.70;;
12812;SDS011;6471;50.932;6.934;2023-04-19T16:15:20;5.47;;;3.20;;
12812;SDS011;6471;50.932;6.934;2023-04-19T16:17:46;4.77;;;3.20;;
12812;SDS011;6471;50.932;6.934;2023-04-19T16:20:12;4.80;;;3.23;;
12812;SDS011;6471;50.932;6.934;2023-04-19T16:22:38;4.00;;;3.07;;
12812;SDS011;6471;50.932;6.934;2023-04-19T16:25:04;4.30;;;2.90;;
12812;SDS011;6471;50.932;6.934;2023-04-19T16:27:30;4.07;;;3.00;;
12812;SDS011;6471;50.932;6.934;2023-04-19T16:29:56;3.97;;;2.60;;
12812;SDS011;6471;50.932;6.934;2023-04-19T16:32:22;3.23;;;2.53;;
12812;SDS011;6471;50.932;6.934;2023-04-19T16:34:48;3.23;;;2.80;;
12812;SDS011;6471;50.932;6.934;2023-04-19T16:37:15;5.87;;;2.73;;
12812;SDS011;6471;50.932;6.934;2023-04-19T16:39:42;3.37;;;2.70;;
12812;SDS011;6471;50.932;6.934;2023-04-19T16:42:08;3.03;;;2.67;;
12812;SDS011;6471;50.932;6.934;2023-04-19T16:44:34;3.37;;;2.63;;
12812;SDS011;6471;50.932;6.934;2023-04-19T16:47:00;5.97;;;2.70;;
12812;SDS011;6471;50.932;6.934;2023-04-19T16:49:26;4.53;;;2.83;;
12812;SDS011;6471;50.932;6.934;2023-04-19T16:51:52;3.73;;;2.77;;
12812;SDS011;6471;50.932;6.934;2023-04-19T16:54:18;4.03;;;2.70;;
12812;SDS011;6471;50.932;6.934;2023-04-19T16:56:44;3.83;;;2.50;;
12812;SDS011;6471;50.932;6.934;2023-04-19T16:59:10;3.17;;;2.27;;
12812;SDS011;6471;50.932;6.934;2023-04-19T17:01:36;5.10;;;2.50;;
12812;SDS011;6471;50.932;6.934;2023-04-19T17:04:03;3.90;;;2.83;;
12812;SDS011;6471;50.932;6.934;2023-04-19T17:06:29;3.17;;;2.30;;
12812;SDS011;6471;50.932;6.934;2023-04-19T17:08:56;2.63;;;2.40;;
12812;SDS011;6471;50.932;6.934;2023-04-19T17:11:22;6.73;;;2.90;;
12812;SDS011;6471;50.932;6.934;2023-04-19T17:13:48;6.27;;;2.70;;
12812;SDS011;6471;50.932;6.934;2023-04-19T17:16:14;3.83;;;2.50;;
12812;SDS011;6471;50.932;6.934;2023-04-19T17:18:40;3.73;;;2.73;;
12812;SDS011;6471;50.932;6.934;2023-04-19T17:21:06;4.10;;;2.70;;
12812;SDS011;6471;50.932;6.934;2023-04-19T17:23:33;3.97;;;2.53;;
12812;SDS011;6471;50.932;6.934;2023-04-19T17:25:59;3.53;;;2.40;;
12812;SDS011;6471;50.932;6.934;2023-04-19T17:28:25;3.60;;;2.40;;
12812;SDS011;6471;50.932;6.934;2023-04-19T17:30:52;5.10;;;2.33;;
12812;SDS011;6471;50.932;6.934;2023-04-19T17:33:18;3.83;;;2.30;;
12812;SDS011;6471;50.932;6.934;2023-04-19T17:35:44;6.13;;;2.60;;
12812;SDS011;6471;50.932;6.934;2023-04-19T17:38:10;3.10;;;2.40;;
12812;SDS011;6471;50.932;6.934;2023-04-19T17:40:36;4.03;;;2.43;;
12812;SDS011;6471;50.932;6.934;2023-04-19T17:43:02;3.13;;;2.30;;
12812;SDS011;6471;50.932;6.934;2023-04-19T17:45:28;2.87;;;2.40;;
12812;SDS011;6471;50.932;6.934;2023-04-19T17:47:54;4.43;;;2.20;;
12812;SDS011;6471;50.932;6.934;2023-04-19T17:50:20;3.63;;;2.17;;
12812;SDS011;6471;50.932;6.934;2023-04-19T17:52:47;4.60;;;2.23;;
12812;SDS011;6471;50.932;6.934;2023-04-19T17:55:13;2.97;;;2.20;;
12812;SDS011;6471;50.932;6.934;2023-04-19T17:57:39;2.80;;;2.10;;
12812;SDS011;6471;50.932;6.934;2023-04-19T18:00:05;4.50;;;2.43;;
12812;SDS011;6471;50.932;6.934;2023-04-19T18:02:32;4.40;;;2.57;;
12812;SDS011;6471;50.932;6.934;2023-04-19T18:04:58;4.17;;;2.50;;
12812;SDS011;6471;50.932;6.934;2023-04-19T18:07:24;6.80;;;4.37;;
12812;SDS011;6471;50.932;6.934;2023-04-19T18:09:50;5.60;;;3.43;;
12812;SDS011;6471;50.932;6.934;2023-04-19T18:12:16;5.43;;;2.80;;
12812;SDS011;6471;50.932;6.934;2023-04-19T18:14:42;3.83;;;2.90;;
12812;SDS011;6471;50.932;6.934;2023-04-19T18:17:08;4.40;;;2.63;;
12812;SDS011;6471;50.932;6.934;2023-04-19T18:19:34;3.60;;;2.53;;
12812;SDS011;6471;50.932;6.934;2023-04-19T18:22:01;5.37;;;2.63;;
12812;SDS011;6471;50.932;6.934;2023-04-19T18:24:27;5.63;;;3.07;;
12812;SDS011;6471;50.932;6.934;2023-04-19T18:26:53;4.50;;;2.53;;
12812;SDS011;6471;50.932;6.934;2023-04-19T18:29:19;5.00;;;2.87;;
12812;SDS011;6471;50.932;6.934;2023-04-19T18:31:47;5.30;;;3.03;;
12812;SDS011;6471;50.932;6.934;2023-04-19T18:34:13;6.30;;;3.30;;
12812;SDS011;6471;50.932;6.934;2023-04-19T18:36:39;5.20;;;2.87;;
12812;SDS011;6471;50.932;6.934;2023-04-19T18:39:05;8.00;;;3.90;;
12812;SDS011;6471;50.932;6.934;2023-04-19T18:41:32;7.37;;;3.77;;
12812;SDS011;6471;50.932;6.934;2023-04-19T18:44:01;5.83;;;3.63;;
12812;SDS011;6471;50.932;6.934;2023-04-19T18:46:27;6.70;;;3.83;;
12812;SDS011;6471;50.932;6.934;2023-04-19T18:48:53;7.87;;;4.40;;
12812;SDS011;6471;50.932;6.934;2023-04-19T18:51:20;5.27;;;3.40;;
12812;SDS011;6471;50.932;6.934;2023-04-19T18:53:46;5.47;;;3.00;;
12812;SDS011;6471;50.932;6.934;2023-04-19T18:56:13;3.87;;;2.80;;
12812;SDS011;6471;50.932;6.934;2023-04-19T18:58:40;4.37;;;2.93;;
12812;SDS011;6471;50.932;6.934;2023-04-19T19:01:06;5.20;;;3.23;;
12812;SDS011;6471;50.932;6.934;2023-04-19T19:03:35;5.40;;;3.07;;
12812;SDS011;6471;50.932;6.934;2023-04-19T19:06:01;6.00;;;2.93;;
12812;SDS011;6471;50.932;6.934;2023-04-19T19:08:27;5.27;;;2.97;;
12812;SDS011;6471;50.932;6.934;2023-04-19T19:10:53;4.90;;;2.90;;
12812;SDS011;6471;50.932;6.934;2023-04-19T19:13:19;5.87;;;2.63;;
12812;SDS011;6471;50.932;6.934;2023-04-19T19:15:45;3.57;;;2.53;;
12812;SDS011;6471;50.932;6.934;2023-04-19T19:18:11;4.77;;;3.03;;
12812;SDS011;6471;50.932;6.934;2023-04-19T19:20:37;4.50;;;2.60;;
12812;SDS011;6471;50.932;6.934;2023-04-19T19:23:03;4.10;;;3.20;;
12812;SDS011;6471;50.932;6.934;2023-04-19T19:25:29;3.37;;;2.40;;
12812;SDS011;6471;50.932;6.934;2023-04-19T19:27:55;3.90;;;2.80;;
12812;SDS011;6471;50.932;6.934;2023-04-19T19:30:23;5.87;;;2.63;;
12812;SDS011;6471;50.932;6.934;2023-04-19T19:32:50;4.70;;;3.00;;
12812;SDS011;6471;50.932;6.934;2023-04-19T19:35:16;7.37;;;3.30;;
12812;SDS011;6471;50.932;6.934;2023-04-19T19:37:42;5.03;;;3.10;;
12812;SDS011;6471;50.932;6.934;2023-04-19T19:40:08;5.60;;;2.90;;
12812;SDS011;6471;50.932;6.934;2023-04-19T19:42:34;4.37;;;2.63;;
12812;SDS011;6471;50.932;6.934;2023-04-19T19:45:03;3.43;;;2.40;;
12812;SDS011;6471;50.932;6.934;2023-04-19T19:47:29;3.57;;;2.70;;
12812;SDS011;6471;50.932;6.934;2023-04-19T19:49:59;4.90;;;2.80;;
12812;SDS011;6471;50.932;6.934;2023-04-19T19:52:28;3.43;;;2.80;;
12812;SDS011;6471;50.932;6.934;2023-04-19T19:54:55;4.63;;;3.10;;
12812;SDS011;6471;50.932;6.934;2023-04-19T19:57:21;4.30;;;2.73;;
12812;SDS011;6471;50.932;6.934;2023-04-19T19:59:48;4.47;;;3.20;;
12812;SDS011;6471;50.932;6.934;2023-04-19T20:02:14;4.63;;;3.00;;
12812;SDS011;6471;50.932;6.934;2023-04-19T20:04:40;3.53;;;2.60;;
12812;SDS011;6471;50.932;6.934;2023-04-19T20:07:06;3.50;;;2.63;;
12812;SDS011;6471;50.932;6.934;2023-04-19T20:09:33;5.00;;;2.97;;
12812;SDS011;6471;50.932;6.934;2023-04-19T20:11:59;4.90;;;3.10;;
12812;SDS011;6471;50.932;6.934;2023-04-19T20:14:26;4.30;;;2.77;;
12812;SDS011;6471;50.932;6.934;2023-04-19T20:16:52;6.07;;;2.87;;
12812;SDS011;6471;50.932;6.934;2023-04-19T20:19:18;4.33;;;3.00;;
12812;SDS011;6471;50.932;6.934;2023-04-19T20:21:45;5.60;;;3.00;;
12812;SDS011;6471;50.932;6.934;2023-04-19T20:24:11;3.90;;;2.80;;
12812;SDS011;6471;50.932;6.934;2023-04-19T20:26:37;4.77;;;2.90;;
12812;SDS011;6471;50.932;6.934;2023-04-19T20:29:04;5.50;;;2.80;;
12812;SDS011;6471;50.932;6.934;2023-04-19T20:31:30;4.23;;;2.80;;
12812;SDS011;6471;50.932;6.934;2023-04-19T20:33:56;3.73;;;2.77;;
12812;SDS011;6471;50.932;6.934;2023-04-19T20:36:22;4.57;;;3.10;;
12812;SDS011;6471;50.932;6.934;2023-04-19T20:38:49;4.97;;;2.73;;
12812;SDS011;6471;50.932;6.934;2023-04-19T20:41:15;4.80;;;2.60;;
12812;SDS011;6471;50.932;6.934;2023-04-19T20:43:42;5.90;;;3.10;;
12812;SDS011;6471;50.932;6.934;2023-04-19T20:46:08;4.37;;;2.97;;
12812;SDS011;6471;50.932;6.934;2023-04-19T20:48:34;4.80;;;2.60;;
12812;SDS011;6471;50.932;6.934;2023-04-19T20:51:00;5.20;;;3.07;;
12812;SDS011;6471;50.932;6.934;2023-04-19T20:53:26;3.33;;;2.80;;
12812;SDS011;6471;50.932;6.934;2023-04-19T20:55:53;4.43;;;3.47;;
12812;SDS011;6471;50.932;6.934;2023-04-19T20:58:19;5.07;;;3.17;;
12812;SDS011;6471;50.932;6.934;2023-04-19T21:00:45;4.87;;;3.13;;
12812;SDS011;6471;50.932;6.934;2023-04-19T21:03:11;3.70;;;2.87;;
12812;SDS011;6471;50.932;6.934;2023-04-19T21:05:37;4.47;;;2.83;;
12812;SDS011;6471;50.932;6.934;2023-04-19T21:08:03;4.80;;;3.13;;
12812;SDS011;6471;50.932;6.934;2023-04-19T21:10:29;3.63;;;2.80;;
12812;SDS011;6471;50.932;6.934;2023-04-19T21:12:55;4.93;;;3.00;;
12812;SDS011;6471;50.932;6.934;2023-04-19T21:15:21;4.63;;;2.93;;
12812;SDS011;6471;50.932;6.934;2023-04-19T21:17:47;3.80;;;2.83;;
12812;SDS011;6471;50.932;6.934;2023-04-19T21:20:13;7.03;;;3.53;;
12812;SDS011;6471;50.932;6.934;2023-04-19T21:22:42;6.83;;;3.00;;
12812;SDS011;6471;50.932;6.934;2023-04-19T21:25:09;4.00;;;3.00;;
12812;SDS011;6471;50.932;6.934;2023-04-19T21:27:36;6.97;;;3.07;;
12812;SDS011;6471;50.932;6.934;2023-04-19T21:30:03;7.00;;;3.40;;
12812;SDS011;6471;50.932;6.934;2023-04-19T21:32:29;4.23;;;2.87;;
12812;SDS011;6471;50.932;6.934;2023-04-19T21:34:55;4.50;;;3.03;;
12812;SDS011;6471;50.932;6.934;2023-04-19T21:37:21;4.60;;;3.40;;
12812;SDS011;6471;50.932;6.934;2023-04-19T21:39:47;5.83;;;3.27;;
12812;SDS011;6471;50.932;6.934;2023-04-19T21:42:14;6.80;;;3.77;;
12812;SDS011;6471;50.932;6.934;2023-04-19T21:44:40;5.37;;;3.77;;
12812;SDS011;6471;50.932;6.934;2023-04-19T21:47:06;4.77;;;3.43;;
12812;SDS011;6471;50.932;6.934;2023-04-19T21:52:01;6.00;;;3.20;;